Time;durP1;ratioP1;P1;durP2;ratioP2;P2;SDS_P1;SDS_P2;PMS_P1;PMS_P2;Temp;Humidity;BMP_temperature;BMP_pressure;BME280_temperature;BME280_humidity;BME280_pressure;Samples;Min_cycle;Max_cycle;Signal;HPM_P1;HPM_P2
2021/07/18 00:01:28;;;;;;;1.50;1.40;;;28.10;62.70;;;;;;5015031;28;20459;-28
2021/07/18 00:03:59;;;;;;;1.80;1.70;;;27.90;64.30;;;;;;5005760;28;20477;-28
2021/07/18 00:06:45;;;;;;;1.90;1.80;;;28.00;64.60;;;;;;5008690;28;20460;-28
2021/07/18 00:09:16;;;;;;;1.90;1.80;;;28.00;65.50;;;;;;5017540;28;20454;-27
2021/07/18 00:11:47;;;;;;;1.93;1.83;;;28.00;63.00;;;;;;5005193;28;20451;-27
2021/07/18 00:14:19;;;;;;;1.83;1.73;;;27.80;64.20;;;;;;5004816;28;20524;-28
2021/07/18 00:16:51;;;;;;;1.57;1.47;;;27.80;63.90;;;;;;5004778;28;20478;-28
2021/07/18 00:19:22;;;;;;;2.50;1.70;;;27.80;63.50;;;;;;5012300;28;20582;-28
2021/07/18 00:21:53;;;;;;;1.53;1.43;;;27.60;64.40;;;;;;5011683;28;20453;-28
2021/07/18 00:24:24;;;;;;;1.60;1.43;;;27.60;64.90;;;;;;5005425;28;20459;-28
2021/07/18 00:26:55;;;;;;;2.00;1.90;;;27.50;65.20;;;;;;5004916;28;20535;-28
2021/07/18 00:29:27;;;;;;;1.70;1.60;;;27.40;64.90;;;;;;5011854;28;20455;-27
2021/07/18 00:31:59;;;;;;;1.80;1.70;;;27.30;64.70;;;;;;5020141;28;20524;-28
2021/07/18 00:34:32;;;;;;;2.07;1.87;;;27.20;64.80;;;;;;5016673;28;20447;-27
2021/07/18 00:37:03;;;;;;;3.10;2.60;;;27.20;64.80;;;;;;5011464;28;20453;-28
2021/07/18 00:39:34;;;;;;;2.00;1.80;;;27.20;66.00;;;;;;5015432;28;20531;-28
2021/07/18 00:42:06;;;;;;;2.17;1.67;;;27.00;65.60;;;;;;5009909;28;20475;-28
2021/07/18 00:44:37;;;;;;;3.40;3.10;;;27.00;65.70;;;;;;5004750;28;20483;-28
2021/07/18 00:47:10;;;;;;;3.80;3.50;;;27.10;65.70;;;;;;5022099;28;20464;-26
2021/07/18 00:49:41;;;;;;;2.83;2.63;;;27.10;65.00;;;;;;5023707;28;20446;-27
2021/07/18 00:52:12;;;;;;;2.70;2.50;;;27.00;65.60;;;;;;5022911;28;20453;-27
2021/07/18 00:54:44;;;;;;;2.57;2.37;;;26.80;64.70;;;;;;5024064;28;20780;-26
2021/07/18 00:57:15;;;;;;;2.63;1.80;;;26.70;65.80;;;;;;5022563;28;20510;-27
2021/07/18 00:59:47;;;;;;;2.47;2.27;;;26.80;66.80;;;;;;5024022;28;20534;-28
2021/07/18 01:02:20;;;;;;;2.20;2.07;;;26.70;64.70;;;;;;5011290;28;20443;-28
2021/07/18 01:04:52;;;;;;;2.10;1.87;;;26.70;66.60;;;;;;5004354;28;20527;-27
2021/07/18 01:07:23;;;;;;;2.10;1.90;;;26.60;65.00;;;;;;5003003;28;20444;-27
2021/07/18 01:09:54;;;;;;;1.83;1.73;;;26.50;66.40;;;;;;5004630;28;20498;-27
2021/07/18 01:12:26;;;;;;;2.83;2.13;;;26.50;66.00;;;;;;5003675;28;20522;-27
2021/07/18 01:14:57;;;;;;;2.00;1.80;;;26.40;65.80;;;;;;5004416;28;20476;-26
2021/07/18 01:17:30;;;;;;;2.40;2.00;;;26.30;66.10;;;;;;5005545;28;20477;-27
2021/07/18 01:20:03;;;;;;;2.33;2.13;;;26.30;65.40;;;;;;5004402;28;20488;-27
2021/07/18 01:22:36;;;;;;;3.07;2.20;;;26.20;65.70;;;;;;5003144;28;20447;-27
2021/07/18 01:25:09;;;;;;;2.30;1.93;;;26.20;64.90;;;;;;5004035;28;20856;-27
2021/07/18 01:27:43;;;;;;;1.93;1.83;;;26.00;65.60;;;;;;5003348;28;20514;-27
2021/07/18 01:30:15;;;;;;;2.90;2.67;;;26.10;66.00;;;;;;5004189;28;20487;-27
2021/07/18 01:32:46;;;;;;;3.10;2.80;;;26.00;66.70;;;;;;5003435;28;20922;-28
2021/07/18 01:35:17;;;;;;;2.30;2.20;;;25.90;67.20;;;;;;5003757;28;20764;-27
2021/07/18 01:37:50;;;;;;;2.90;2.70;;;25.80;67.60;;;;;;5007240;28;20611;-28
2021/07/18 01:40:21;;;;;;;2.27;2.07;;;25.90;67.80;;;;;;5019532;28;20509;-27
2021/07/18 01:42:55;;;;;;;8.23;2.53;;;25.80;65.80;;;;;;5008238;28;20508;-27
2021/07/18 01:45:26;;;;;;;2.43;2.23;;;25.80;66.60;;;;;;5022018;28;20454;-27
2021/07/18 01:47:57;;;;;;;2.43;2.23;;;25.70;66.70;;;;;;5008683;28;20514;-27
2021/07/18 01:50:29;;;;;;;2.30;2.10;;;25.70;67.40;;;;;;5010655;28;20529;-28
2021/07/18 01:53:02;;;;;;;2.20;2.00;;;25.80;68.30;;;;;;5016224;28;20518;-27
2021/07/18 01:55:33;;;;;;;2.07;1.83;;;25.70;68.30;;;;;;5023313;28;20923;-28
2021/07/18 01:58:04;;;;;;;2.10;1.63;;;25.60;69.50;;;;;;5014591;28;20935;-27
2021/07/18 02:00:35;;;;;;;1.70;1.60;;;25.60;70.10;;;;;;5020242;28;20512;-28
2021/07/18 02:03:07;;;;;;;1.70;1.60;;;25.60;70.40;;;;;;5024666;28;20509;-28
2021/07/18 02:05:38;;;;;;;1.90;1.60;;;25.50;70.20;;;;;;5027561;28;20485;-28
2021/07/18 02:08:11;;;;;;;3.90;2.23;;;25.50;70.60;;;;;;5028074;28;20500;-28
2021/07/18 02:10:41;;;;;;;3.00;2.30;;;25.40;69.50;;;;;;5021666;28;20443;-27
2021/07/18 02:13:18;;;;;;;2.03;1.90;;;25.30;68.60;;;;;;5009735;28;20478;-27
2021/07/18 02:15:49;;;;;;;1.90;1.80;;;25.10;68.80;;;;;;5010174;28;20454;-29
2021/07/18 02:18:20;;;;;;;2.77;2.40;;;25.00;69.50;;;;;;5011837;28;20489;-27
2021/07/18 02:20:51;;;;;;;1.97;1.80;;;25.00;69.40;;;;;;5014005;28;20481;-27
2021/07/18 02:23:24;;;;;;;2.30;2.03;;;24.90;70.40;;;;;;5012809;28;20479;-28
2021/07/18 02:25:55;;;;;;;1.87;1.77;;;24.80;70.40;;;;;;5025850;28;20542;-28
2021/07/18 02:28:26;;;;;;;4.50;2.70;;;24.80;70.20;;;;;;5025602;28;20453;-27
2021/07/18 02:30:57;;;;;;;2.97;2.67;;;24.80;70.50;;;;;;5022625;28;20525;-27
2021/07/18 02:33:28;;;;;;;2.47;1.97;;;24.80;70.60;;;;;;5014821;28;20451;-27
2021/07/18 02:35:59;;;;;;;1.80;1.70;;;24.80;70.30;;;;;;5015391;28;20461;-28
2021/07/18 02:38:32;;;;;;;2.20;2.00;;;24.70;70.20;;;;;;5016983;28;20502;-28
2021/07/18 02:41:03;;;;;;;1.77;1.67;;;24.60;70.80;;;;;;5028301;28;20531;-28
2021/07/18 02:43:34;;;;;;;2.13;2.03;;;24.50;71.00;;;;;;5021199;28;20450;-28
2021/07/18 02:46:06;;;;;;;2.50;2.30;;;24.40;71.40;;;;;;5021174;28;20482;-28
2021/07/18 02:48:37;;;;;;;2.30;2.00;;;24.40;72.40;;;;;;5017594;28;20946;-28
2021/07/18 02:51:08;;;;;;;1.87;1.77;;;24.30;73.00;;;;;;5018784;28;20530;-28
2021/07/18 02:53:41;;;;;;;2.10;2.00;;;24.30;73.40;;;;;;5021308;28;20452;-29
2021/07/18 02:56:12;;;;;;;2.37;2.10;;;24.30;73.50;;;;;;5019690;28;20450;-28
2021/07/18 02:58:44;;;;;;;2.67;2.20;;;24.30;74.00;;;;;;5019941;28;20450;-28
2021/07/18 03:01:16;;;;;;;2.20;2.00;;;24.20;74.00;;;;;;5011950;28;20651;-27
2021/07/18 03:03:47;;;;;;;2.07;1.97;;;24.10;74.80;;;;;;5023601;28;20453;-27
2021/07/18 03:06:18;;;;;;;2.10;2.00;;;24.10;75.70;;;;;;5025276;28;20453;-28
2021/07/18 03:08:51;;;;;;;2.23;1.90;;;24.00;76.30;;;;;;5024918;28;20473;-28
2021/07/18 03:11:22;;;;;;;1.93;1.57;;;24.00;76.70;;;;;;5014909;28;20469;-28
2021/07/18 03:13:53;;;;;;;1.87;1.77;;;23.90;77.40;;;;;;5017333;28;20455;-27
2021/07/18 03:16:24;;;;;;;2.53;2.33;;;23.80;77.90;;;;;;5025888;28;20513;-28
2021/07/18 03:18:55;;;;;;;2.30;2.10;;;23.80;77.80;;;;;;5022226;28;20953;-27
2021/07/18 03:21:26;;;;;;;1.77;1.67;;;23.70;78.30;;;;;;5005929;28;21013;-28
2021/07/18 03:23:58;;;;;;;1.60;1.50;;;23.70;78.60;;;;;;5006420;28;20763;-27
2021/07/18 03:26:30;;;;;;;2.30;2.10;;;23.60;79.10;;;;;;5006577;28;20438;-28
2021/07/18 03:29:00;;;;;;;2.20;2.03;;;23.50;80.10;;;;;;5012882;28;20455;-27
2021/07/18 03:31:32;;;;;;;2.17;1.80;;;23.30;81.00;;;;;;5011724;28;20463;-28
2021/07/18 03:34:03;;;;;;;3.30;2.10;;;23.40;81.30;;;;;;5012223;28;20451;-28
2021/07/18 03:36:34;;;;;;;2.00;1.80;;;23.30;81.50;;;;;;5007073;28;20455;-27
2021/07/18 03:39:07;;;;;;;2.60;1.93;;;23.20;81.80;;;;;;5014658;28;20442;-27
2021/07/18 03:41:38;;;;;;;1.60;1.50;;;23.10;82.40;;;;;;5012282;28;20537;-27
2021/07/18 03:44:09;;;;;;;2.23;1.50;;;23.00;83.10;;;;;;5012654;28;20491;-28
2021/07/18 03:46:40;;;;;;;1.90;1.70;;;22.90;83.60;;;;;;5010351;28;20459;-29
2021/07/18 03:49:11;;;;;;;2.13;1.87;;;22.80;84.10;;;;;;5011859;28;20455;-28
2021/07/18 03:51:42;;;;;;;2.10;1.90;;;22.80;84.70;;;;;;5023701;28;20450;-28
2021/07/18 03:54:15;;;;;;;2.43;2.23;;;22.80;84.40;;;;;;5021288;28;20489;-28
2021/07/18 03:56:46;;;;;;;2.00;1.80;;;22.70;84.80;;;;;;5008347;28;20478;-28
2021/07/18 03:59:17;;;;;;;2.63;2.23;;;22.70;85.30;;;;;;5005306;28;20490;-28
2021/07/18 04:01:48;;;;;;;2.60;1.83;;;22.60;85.90;;;;;;5009926;28;20548;-28
2021/07/18 04:04:19;;;;;;;2.30;2.10;;;22.60;85.90;;;;;;5005612;28;20492;-28
2021/07/18 04:06:50;;;;;;;2.27;2.10;;;22.50;86.50;;;;;;5012051;28;20477;-28
2021/07/18 04:09:23;;;;;;;2.30;2.10;;;22.50;86.40;;;;;;5024663;28;20479;-29
2021/07/18 04:11:54;;;;;;;1.93;1.77;;;22.40;87.40;;;;;;5012893;28;20446;-28
2021/07/18 04:14:25;;;;;;;3.20;2.03;;;22.30;88.20;;;;;;5016611;28;20473;-28
2021/07/18 04:16:56;;;;;;;2.00;1.80;;;22.20;88.50;;;;;;5005649;28;20444;-28
2021/07/18 04:19:27;;;;;;;2.23;1.90;;;22.20;89.20;;;;;;5009483;28;20454;-28
2021/07/18 04:21:58;;;;;;;2.80;2.23;;;22.10;89.70;;;;;;5022241;28;20444;-28
2021/07/18 04:24:31;;;;;;;2.43;1.93;;;22.00;90.30;;;;;;5016836;28;20433;-28
2021/07/18 04:27:02;;;;;;;1.77;1.67;;;21.90;90.90;;;;;;5016520;28;20429;-28
2021/07/18 04:29:33;;;;;;;1.97;1.77;;;21.90;91.10;;;;;;5007711;28;20457;-27
2021/07/18 04:32:05;;;;;;;2.33;2.17;;;21.80;91.40;;;;;;5010825;28;20441;-28
2021/07/18 04:34:36;;;;;;;1.93;1.83;;;21.80;91.60;;;;;;5012645;28;20482;-27
2021/07/18 04:37:08;;;;;;;3.27;1.60;;;21.70;92.00;;;;;;5014152;28;20494;-28
2021/07/18 04:39:42;;;;;;;3.03;2.07;;;21.60;92.40;;;;;;5019896;28;21031;-27
2021/07/18 04:42:14;;;;;;;3.10;1.90;;;21.60;92.70;;;;;;5007713;28;20501;-28
2021/07/18 04:44:45;;;;;;;1.87;1.50;;;21.50;92.90;;;;;;5005118;28;20454;-28
2021/07/18 04:47:16;;;;;;;2.20;1.63;;;21.40;93.30;;;;;;5019314;28;20748;-27
2021/07/18 04:49:47;;;;;;;1.93;1.80;;;21.30;93.60;;;;;;5022566;28;20794;-25
2021/07/18 04:52:18;;;;;;;1.80;1.70;;;21.30;93.80;;;;;;5015305;28;20512;-28
2021/07/18 04:54:51;;;;;;;1.73;1.63;;;21.20;94.20;;;;;;5017809;28;20776;-28
2021/07/18 04:57:22;;;;;;;1.93;1.80;;;21.10;94.50;;;;;;5014837;28;20450;-28
2021/07/18 04:59:53;;;;;;;1.93;1.60;;;21.00;94.90;;;;;;5012134;28;20470;-28
2021/07/18 05:02:24;;;;;;;1.93;1.77;;;20.90;95.20;;;;;;5016355;28;20464;-28
2021/07/18 05:04:55;;;;;;;2.53;2.23;;;20.90;95.50;;;;;;5020769;28;20436;-28
2021/07/18 05:07:26;;;;;;;2.80;1.90;;;20.80;95.80;;;;;;5015805;28;20436;-28
2021/07/18 05:09:59;;;;;;;2.10;1.80;;;20.70;96.50;;;;;;5014255;28;20468;-28
2021/07/18 05:12:30;;;;;;;2.70;1.87;;;20.60;96.70;;;;;;5013838;28;20421;-27
2021/07/18 05:15:01;;;;;;;2.93;1.93;;;20.70;97.00;;;;;;5012094;28;20505;-28
2021/07/18 05:17:32;;;;;;;2.13;1.90;;;20.60;97.30;;;;;;5012965;28;20466;-28
2021/07/18 05:20:03;;;;;;;2.00;1.90;;;20.60;97.50;;;;;;5012688;28;20456;-28
2021/07/18 05:22:34;;;;;;;3.90;2.37;;;20.40;98.00;;;;;;5009215;28;20540;-26
2021/07/18 05:25:09;;;;;;;2.40;2.20;;;20.40;98.30;;;;;;5009474;28;20466;-27
2021/07/18 05:27:40;;;;;;;2.10;1.90;;;20.30;98.70;;;;;;5013555;28;20498;-27
2021/07/18 05:30:13;;;;;;;3.30;2.30;;;20.30;98.80;;;;;;5013367;28;20490;-28
2021/07/18 05:32:44;;;;;;;3.37;1.80;;;20.20;99.10;;;;;;5012698;28;20454;-27
2021/07/18 05:35:15;;;;;;;1.80;1.70;;;20.10;99.70;;;;;;5005060;28;20459;-28
2021/07/18 05:37:46;;;;;;;2.30;2.10;;;20.10;99.80;;;;;;5027202;28;20526;-28
2021/07/18 05:40:20;;;;;;;2.20;2.00;;;20.00;99.90;;;;;;5019217;28;20499;-28
2021/07/18 05:42:51;;;;;;;3.13;2.00;;;19.90;99.90;;;;;;5005319;28;20465;-28
2021/07/18 05:45:23;;;;;;;2.20;1.87;;;19.90;99.90;;;;;;5009891;28;20418;-28
2021/07/18 05:47:54;;;;;;;2.50;2.10;;;19.90;99.90;;;;;;5017215;28;20912;-28
2021/07/18 05:50:25;;;;;;;2.07;1.87;;;19.80;99.90;;;;;;5022442;28;20433;-28
2021/07/18 05:52:56;;;;;;;2.03;1.70;;;19.80;99.90;;;;;;5013327;28;20780;-28
2021/07/18 05:55:29;;;;;;;2.57;2.37;;;19.80;99.90;;;;;;5003326;28;20831;-28
2021/07/18 05:58:00;;;;;;;2.53;2.10;;;19.60;99.90;;;;;;5011262;28;20450;-28
2021/07/18 06:00:30;;;;;;;1.63;1.53;;;19.60;99.90;;;;;;5006074;28;20464;-27
2021/07/18 06:03:01;;;;;;;2.20;2.00;;;19.50;99.90;;;;;;5015190;28;20467;-27
2021/07/18 06:05:32;;;;;;;4.77;2.10;;;19.50;99.90;;;;;;5003451;28;20455;-27
2021/07/18 06:08:04;;;;;;;2.27;2.07;;;19.40;99.90;;;;;;5009566;28;20549;-28
2021/07/18 06:10:36;;;;;;;2.60;1.97;;;19.40;99.90;;;;;;5006596;28;20426;-28
2021/07/18 06:13:07;;;;;;;2.83;2.50;;;19.40;99.90;;;;;;5005007;28;20496;-28
2021/07/18 06:15:38;;;;;;;2.47;2.27;;;19.30;99.90;;;;;;5003406;28;20523;-28
2021/07/18 06:18:10;;;;;;;1.90;1.80;;;19.30;99.90;;;;;;5016329;28;20485;-28
2021/07/18 06:20:41;;;;;;;2.37;1.70;;;19.20;99.90;;;;;;5021374;28;20470;-28
2021/07/18 06:23:12;;;;;;;2.30;1.90;;;19.10;99.90;;;;;;5016011;28;20454;-27
2021/07/18 06:26:04;;;;;;;3.40;2.20;;;19.10;99.90;;;;;;5008505;28;20468;-28
2021/07/18 06:28:35;;;;;;;2.43;2.00;;;19.10;99.90;;;;;;5012755;28;20853;-28
2021/07/18 06:31:06;;;;;;;1.80;1.70;;;19.00;99.90;;;;;;5010392;28;20430;-28
2021/07/18 06:33:38;;;;;;;3.03;2.07;;;18.90;99.90;;;;;;5021698;28;20477;-28
2021/07/18 06:36:09;;;;;;;2.40;2.00;;;18.90;99.90;;;;;;5016304;28;20444;-28
2021/07/18 06:38:40;;;;;;;3.80;2.00;;;18.80;99.90;;;;;;5003515;28;20463;-27
2021/07/18 06:41:13;;;;;;;1.97;1.80;;;18.80;99.90;;;;;;5008204;28;20471;-28
2021/07/18 06:43:44;;;;;;;2.47;1.83;;;18.70;99.90;;;;;;5019890;28;20451;-28
2021/07/18 06:46:31;;;;;;;3.30;1.80;;;18.70;99.90;;;;;;5022097;28;20486;-27
2021/07/18 06:49:02;;;;;;;1.90;1.77;;;18.60;99.90;;;;;;5006792;28;20457;-28
2021/07/18 06:51:33;;;;;;;2.30;1.90;;;18.50;99.90;;;;;;5006547;28;20474;-28
2021/07/18 06:54:08;;;;;;;3.17;1.97;;;18.50;99.90;;;;;;5013493;28;20756;-27
2021/07/18 06:56:40;;;;;;;1.90;1.80;;;18.40;99.90;;;;;;5007742;28;20477;-27
2021/07/18 06:59:11;;;;;;;2.40;1.70;;;18.40;99.90;;;;;;5006677;28;20494;-27
2021/07/18 07:01:42;;;;;;;2.20;1.70;;;18.40;99.90;;;;;;5012948;28;20482;-27
2021/07/18 07:04:13;;;;;;;1.90;1.80;;;18.40;99.90;;;;;;5016110;28;20478;-27
2021/07/18 07:06:44;;;;;;;2.27;1.90;;;18.30;99.90;;;;;;5011107;28;20816;-27
2021/07/18 07:09:15;;;;;;;3.00;1.80;;;18.20;99.90;;;;;;5008810;28;20507;-28
2021/07/18 07:11:48;;;;;;;2.40;1.70;;;18.20;99.90;;;;;;5017162;28;20439;-28
2021/07/18 07:14:19;;;;;;;2.30;1.70;;;18.10;99.90;;;;;;5022911;28;20429;-28
2021/07/18 07:16:50;;;;;;;1.70;1.60;;;18.10;99.90;;;;;;5023453;28;20458;-27
2021/07/18 07:19:21;;;;;;;2.80;2.20;;;18.10;99.90;;;;;;5013979;28;20458;-27
2021/07/18 07:21:52;;;;;;;3.57;1.80;;;18.00;99.90;;;;;;5007833;28;20506;-27
2021/07/18 07:24:24;;;;;;;2.30;1.80;;;18.00;99.90;;;;;;5008121;28;20533;-28
2021/07/18 07:26:57;;;;;;;2.00;1.90;;;18.00;99.90;;;;;;5025590;28;20447;-27
2021/07/18 07:29:28;;;;;;;4.63;2.20;;;17.90;99.90;;;;;;5014522;28;20454;-27
2021/07/18 07:31:59;;;;;;;1.90;1.70;;;17.90;99.90;;;;;;5009413;28;20562;-27
2021/07/18 07:34:30;;;;;;;4.13;2.20;;;17.90;99.90;;;;;;5024786;28;20504;-27
2021/07/18 07:37:01;;;;;;;2.03;1.80;;;17.80;99.90;;;;;;5019626;28;20453;-27
2021/07/18 07:39:34;;;;;;;2.43;1.60;;;17.80;99.90;;;;;;5019638;28;20442;-28
2021/07/18 07:42:07;;;;;;;1.90;1.80;;;17.70;99.90;;;;;;5009310;28;20514;-28
2021/07/18 07:45:02;;;;;;;3.03;1.97;;;17.60;99.90;;;;;;5009293;28;20443;-28
2021/07/18 07:47:33;;;;;;;4.77;2.43;;;17.60;99.90;;;;;;5022783;28;20450;-28
2021/07/18 07:50:04;;;;;;;2.13;1.70;;;17.60;99.90;;;;;;5024329;28;20489;-28
2021/07/18 07:52:35;;;;;;;3.10;1.90;;;17.60;99.90;;;;;;5013831;28;20481;-28
2021/07/18 07:55:07;;;;;;;4.00;2.57;;;17.50;99.90;;;;;;5005967;28;20478;-28
2021/07/18 07:57:40;;;;;;;1.63;1.53;;;17.50;99.90;;;;;;5014067;28;20761;-28
2021/07/18 08:00:13;;;;;;;2.20;1.50;;;17.40;99.90;;;;;;5015818;28;20456;-28
2021/07/18 08:02:45;;;;;;;2.00;1.60;;;17.40;99.90;;;;;;5017135;28;20517;-28
2021/07/18 08:05:17;;;;;;;2.60;1.97;;;17.40;99.90;;;;;;5020493;28;20432;-28
2021/07/18 08:07:48;;;;;;;1.43;1.33;;;17.30;99.90;;;;;;5017579;28;20483;-27
2021/07/18 08:10:21;;;;;;;3.03;1.80;;;17.30;99.90;;;;;;5010104;28;20459;-28
2021/07/18 08:12:54;;;;;;;2.80;1.57;;;17.30;99.90;;;;;;5020958;28;20468;-28
2021/07/18 08:15:25;;;;;;;2.33;1.77;;;17.20;99.90;;;;;;5023216;28;20459;-28
2021/07/18 08:17:56;;;;;;;1.67;1.57;;;17.20;99.90;;;;;;5006042;28;20521;-28
2021/07/18 08:20:29;;;;;;;2.20;1.80;;;17.20;99.90;;;;;;5011079;28;20571;-28
2021/07/18 08:23:00;;;;;;;2.80;1.80;;;17.10;99.90;;;;;;5009865;28;20560;-27
2021/07/18 08:25:31;;;;;;;2.70;1.60;;;17.00;99.90;;;;;;5015563;28;20466;-28
2021/07/18 08:28:04;;;;;;;2.27;2.10;;;17.10;99.90;;;;;;5016723;28;20458;-28
2021/07/18 08:30:35;;;;;;;2.83;1.63;;;17.00;99.90;;;;;;5023027;28;20454;-28
2021/07/18 08:33:07;;;;;;;5.23;1.70;;;17.00;99.90;;;;;;5024030;28;20450;-28
2021/07/18 08:35:38;;;;;;;1.90;1.80;;;16.90;99.90;;;;;;5011175;28;20451;-28
2021/07/18 08:38:09;;;;;;;3.77;1.90;;;16.90;99.90;;;;;;5006705;28;20459;-28
2021/07/18 08:40:41;;;;;;;1.87;1.73;;;16.90;99.90;;;;;;5013371;28;20479;-27
2021/07/18 08:43:15;;;;;;;3.00;1.93;;;16.90;99.90;;;;;;5003920;28;20602;-28
2021/07/18 08:45:45;;;;;;;1.60;1.50;;;16.80;99.90;;;;;;5006522;28;20455;-28
2021/07/18 08:48:16;;;;;;;1.97;1.87;;;16.90;99.90;;;;;;5024118;28;20454;-28
2021/07/18 08:50:48;;;;;;;5.97;1.73;;;16.80;99.90;;;;;;5010545;28;20455;-28
2021/07/18 08:53:20;;;;;;;2.77;1.73;;;16.70;99.90;;;;;;5015412;28;20454;-28
2021/07/18 08:55:53;;;;;;;2.33;1.70;;;16.60;99.90;;;;;;5019023;28;20456;-28
2021/07/18 08:58:25;;;;;;;2.10;1.90;;;16.60;99.90;;;;;;5010933;28;20462;-27
2021/07/18 09:00:56;;;;;;;1.87;1.77;;;16.60;99.90;;;;;;5011761;28;20478;-28
2021/07/18 09:03:31;;;;;;;1.90;1.80;;;16.60;99.90;;;;;;5004403;28;20544;-28
2021/07/18 09:06:12;;;;;;;2.87;1.77;;;16.40;99.90;;;;;;5009044;28;20461;-27
2021/07/18 09:08:45;;;;;;;1.70;1.40;;;16.50;99.90;;;;;;5005062;28;20469;-28
2021/07/18 09:11:25;;;;;;;1.80;1.70;;;16.50;99.90;;;;;;5003577;28;20518;-28
2021/07/18 09:14:05;;;;;;;2.37;1.47;;;16.50;99.90;;;;;;5003267;28;20482;-28
2021/07/18 09:16:38;;;;;;;3.73;1.83;;;16.50;99.90;;;;;;5011501;28;20446;-28
2021/07/18 09:19:20;;;;;;;1.70;1.60;;;16.40;99.90;;;;;;5010615;28;20447;-28
2021/07/18 09:21:53;;;;;;;2.37;1.70;;;16.50;99.90;;;;;;5020252;28;20444;-28
2021/07/18 09:24:25;;;;;;;1.97;1.87;;;16.50;99.90;;;;;;5010532;28;20482;-27
2021/07/18 09:27:16;;;;;;;1.77;1.67;;;16.50;99.90;;;;;;5007530;28;20501;-26
2021/07/18 09:29:50;;;;;;;2.33;1.80;;;16.40;99.90;;;;;;5005050;28;20459;-27
2021/07/18 09:32:22;;;;;;;2.20;1.70;;;16.40;99.90;;;;;;5017438;28;20488;-28
2021/07/18 09:34:56;;;;;;;2.20;2.00;;;16.50;99.90;;;;;;5019323;28;20470;-28
2021/07/18 09:37:28;;;;;;;1.67;1.57;;;16.40;99.90;;;;;;5021976;28;20450;-28
2021/07/18 09:40:02;;;;;;;2.40;1.73;;;16.40;99.90;;;;;;5017765;28;20628;-28
2021/07/18 09:42:37;;;;;;;2.07;1.93;;;16.40;99.90;;;;;;5003712;28;20550;-27
2021/07/18 09:45:18;;;;;;;2.00;1.80;;;16.40;99.90;;;;;;5006442;28;20450;-27
2021/07/18 09:48:01;;;;;;;2.30;1.80;;;16.30;99.90;;;;;;5012981;28;20480;-27
2021/07/18 09:50:34;;;;;;;2.30;1.67;;;16.30;99.90;;;;;;5017149;28;20451;-28
2021/07/18 09:53:11;;;;;;;2.47;2.27;;;16.30;99.90;;;;;;5006732;28;20449;-27
2021/07/18 09:55:58;;;;;;;2.27;2.10;;;16.20;99.90;;;;;;5005710;28;20465;-27
2021/07/18 09:58:30;;;;;;;2.10;1.93;;;16.10;99.90;;;;;;5022383;28;20549;-28
2021/07/18 10:01:04;;;;;;;3.90;1.50;;;16.20;99.90;;;;;;5005809;28;20456;-27
2021/07/18 10:03:36;;;;;;;3.03;1.43;;;16.20;99.90;;;;;;5004631;28;20493;-28
2021/07/18 10:06:09;;;;;;;1.93;1.73;;;16.10;99.90;;;;;;5003342;28;20518;-27
2021/07/18 10:08:41;;;;;;;2.00;1.90;;;16.00;99.90;;;;;;5005102;28;20462;-27
2021/07/18 10:11:13;;;;;;;1.70;1.60;;;16.00;99.90;;;;;;5008726;28;21454;-28
2021/07/18 10:13:45;;;;;;;2.20;1.77;;;15.90;99.90;;;;;;5012344;28;20479;-28
2021/07/18 10:16:18;;;;;;;2.13;1.87;;;15.80;99.90;;;;;;5014144;28;20448;-27
2021/07/18 10:18:51;;;;;;;1.60;1.50;;;15.80;99.90;;;;;;5014132;28;20487;-27
2021/07/18 10:21:24;;;;;;;1.77;1.63;;;15.80;99.90;;;;;;5022652;28;20493;-27
2021/07/18 10:23:56;;;;;;;2.77;1.80;;;15.70;99.90;;;;;;5026105;28;20483;-27
2021/07/18 10:26:29;;;;;;;1.97;1.70;;;15.70;99.90;;;;;;5014089;28;20451;-27
2021/07/18 10:29:00;;;;;;;4.40;1.87;;;15.70;99.90;;;;;;5012280;28;21073;-28
2021/07/18 10:31:37;;;;;;;4.30;1.77;;;15.60;99.90;;;;;;5013730;28;20569;-27
2021/07/18 10:34:10;;;;;;;2.33;1.33;;;15.70;99.90;;;;;;5021567;28;20513;-27
2021/07/18 10:36:41;;;;;;;1.57;1.47;;;15.60;99.90;;;;;;5006566;28;20458;-27
2021/07/18 10:39:34;;;;;;;4.00;1.77;;;15.60;99.90;;;;;;5009082;28;20457;-27
2021/07/18 10:42:34;;;;;;;1.40;1.30;;;15.60;99.90;;;;;;5009324;28;20517;-27
2021/07/18 10:45:20;;;;;;;1.87;1.67;;;15.60;99.90;;;;;;5008654;28;20486;-28
2021/07/18 10:48:01;;;;;;;1.50;1.40;;;15.50;99.90;;;;;;5006807;28;20491;-28
2021/07/18 10:50:51;;;;;;;2.80;2.03;;;15.50;99.90;;;;;;5012624;28;20450;-28
2021/07/18 10:53:24;;;;;;;1.77;1.67;;;15.50;99.90;;;;;;5025479;28;20446;-28
2021/07/18 10:55:57;;;;;;;1.80;1.43;;;15.50;99.90;;;;;;5013973;28;20443;-28
2021/07/18 10:58:55;;;;;;;1.60;1.40;;;15.50;99.90;;;;;;5024219;28;20450;-27
2021/07/18 11:01:37;;;;;;;1.80;1.50;;;15.50;99.90;;;;;;5019927;28;20772;-28
2021/07/18 11:04:43;;;;;;;2.43;1.70;;;15.50;99.90;;;;;;5011158;28;20500;-28
2021/07/18 11:07:31;;;;;;;1.63;1.53;;;15.50;99.90;;;;;;5007494;28;20473;-28
2021/07/18 11:10:12;;;;;;;2.10;1.53;;;15.50;99.90;;;;;;5021978;28;20466;-28
2021/07/18 11:12:46;;;;;;;1.70;1.30;;;15.50;99.90;;;;;;5005520;28;20517;-27
2021/07/18 11:15:33;;;;;;;1.40;1.30;;;15.40;99.90;;;;;;5014620;28;20542;-27
2021/07/18 11:18:09;;;;;;;1.73;1.37;;;15.40;99.90;;;;;;5008841;28;20824;-27
2021/07/18 11:21:07;;;;;;;2.30;2.03;;;15.40;99.90;;;;;;5024835;28;20518;-27
2021/07/18 11:23:42;;;;;;;4.13;2.03;;;15.30;99.90;;;;;;5006150;28;20438;-27
2021/07/18 11:26:20;;;;;;;1.53;1.10;;;15.20;99.90;;;;;;5015844;28;20453;-27
2021/07/18 11:29:09;;;;;;;2.10;1.80;;;15.20;99.90;;;;;;5017225;28;20450;-27
2021/07/18 11:31:45;;;;;;;1.43;1.33;;;15.20;99.90;;;;;;4988818;28;20502;-27
2021/07/18 11:34:23;;;;;;;1.60;1.50;;;15.10;99.90;;;;;;5018333;28;20455;-27
2021/07/18 11:37:07;;;;;;;2.00;1.57;;;15.20;99.90;;;;;;5005109;28;20497;-27
2021/07/18 11:39:38;;;;;;;2.50;1.30;;;15.20;99.90;;;;;;5014181;28;20584;-27
2021/07/18 11:42:11;;;;;;;1.57;1.47;;;15.20;99.90;;;;;;5006162;28;20517;-27
2021/07/18 11:44:43;;;;;;;2.20;2.00;;;15.30;99.90;;;;;;5005904;28;20498;-27
2021/07/18 11:47:16;;;;;;;4.97;1.80;;;15.20;99.90;;;;;;5023672;28;20454;-27
2021/07/18 11:49:48;;;;;;;2.73;2.23;;;15.20;99.90;;;;;;5015064;28;20798;-26
2021/07/18 11:52:24;;;;;;;1.90;1.80;;;15.20;99.90;;;;;;5004730;28;20486;-27
2021/07/18 11:54:56;;;;;;;3.83;1.60;;;15.20;99.90;;;;;;5007155;28;20554;-26
2021/07/18 11:57:28;;;;;;;1.80;1.50;;;15.10;99.90;;;;;;5013817;28;20474;-27
2021/07/18 12:00:00;;;;;;;2.10;1.73;;;15.10;99.90;;;;;;5022606;28;20469;-27
2021/07/18 12:02:31;;;;;;;2.13;1.73;;;15.10;99.90;;;;;;5014927;28;20466;-27
2021/07/18 12:05:07;;;;;;;2.90;1.80;;;15.10;99.90;;;;;;5006956;28;20494;-27
2021/07/18 12:07:39;;;;;;;2.40;1.80;;;15.10;99.90;;;;;;5024001;28;20778;-27
2021/07/18 12:10:20;;;;;;;2.03;1.83;;;15.10;99.90;;;;;;5020271;28;20454;-27
2021/07/18 12:12:51;;;;;;;2.73;2.53;;;15.10;99.90;;;;;;5005076;28;20810;-27
2021/07/18 12:15:22;;;;;;;1.77;1.67;;;15.00;99.90;;;;;;5004826;28;20458;-28
2021/07/18 12:18:03;;;;;;;1.90;1.60;;;15.00;99.90;;;;;;5005510;28;20432;-27
2021/07/18 12:20:34;;;;;;;3.30;1.63;;;15.00;99.90;;;;;;5015384;28;20459;-27
2021/07/18 12:23:13;;;;;;;4.30;1.83;;;15.00;99.90;;;;;;5009194;28;20457;-27
2021/07/18 12:25:45;;;;;;;3.03;2.33;;;15.00;99.90;;;;;;5020275;28;20490;-27
2021/07/18 12:28:19;;;;;;;3.07;1.87;;;14.90;99.90;;;;;;5021298;28;20466;-27
2021/07/18 12:30:50;;;;;;;2.83;2.23;;;14.90;99.90;;;;;;5010631;28;20549;-27
2021/07/18 12:33:25;;;;;;;5.53;2.00;;;15.00;99.90;;;;;;5006303;28;20523;-27
2021/07/18 12:36:02;;;;;;;2.67;1.80;;;14.90;99.90;;;;;;5015890;28;20484;-27
2021/07/18 12:38:35;;;;;;;2.20;1.93;;;14.90;99.90;;;;;;5011481;28;20499;-27
2021/07/18 12:41:06;;;;;;;2.37;2.17;;;14.90;99.90;;;;;;5005531;28;20475;-27
2021/07/18 12:43:39;;;;;;;2.77;1.83;;;14.90;99.90;;;;;;5008544;28;20455;-27
2021/07/18 12:46:12;;;;;;;2.67;2.43;;;14.90;99.90;;;;;;5018697;28;20569;-28
2021/07/18 12:48:43;;;;;;;2.77;1.90;;;14.80;99.90;;;;;;5019141;28;20439;-27
2021/07/18 12:51:17;;;;;;;5.27;3.03;;;14.90;99.90;;;;;;5018582;28;20496;-27
2021/07/18 12:53:56;;;;;;;2.77;2.27;;;14.90;99.90;;;;;;5020562;28;20877;-27
2021/07/18 12:56:27;;;;;;;1.93;1.73;;;14.80;99.90;;;;;;5007952;28;20469;-27
2021/07/18 12:58:58;;;;;;;3.53;2.30;;;14.80;99.90;;;;;;5004071;28;20506;-27
2021/07/18 13:01:30;;;;;;;4.30;2.20;;;14.80;99.90;;;;;;5021425;28;20938;-27
2021/07/18 13:04:07;;;;;;;2.50;2.30;;;14.80;99.90;;;;;;5009241;28;20454;-28
2021/07/18 13:06:42;;;;;;;3.17;1.77;;;14.80;99.90;;;;;;5004658;28;20490;-27
2021/07/18 13:09:26;;;;;;;2.43;2.23;;;14.70;99.90;;;;;;5004261;28;20489;-27
2021/07/18 13:11:57;;;;;;;3.50;2.50;;;14.70;99.90;;;;;;5004000;28;20463;-27
2021/07/18 13:14:30;;;;;;;1.70;1.60;;;14.80;99.90;;;;;;5011977;28;20464;-27
2021/07/18 13:17:07;;;;;;;2.23;1.57;;;14.80;99.90;;;;;;5014506;28;20454;-27
2021/07/18 13:19:42;;;;;;;2.53;1.70;;;14.80;99.90;;;;;;5011267;28;20600;-27